TRI1605 YPDN-YPTN
Flight info
| Callsign | TRI1605 |
|---|---|
| Flight time | N/A |
| Altitude | 19000 |
| Route | DN J251 TN |
| Aircraft | CRJ7/M-SDFGIRWY/S |
Departure
| Time | N/A |
|---|---|
| Airport | Darwin International Airport / RAAF Darwin (YPDN) |
Arrival
| Time | 2026-05-07 01:12 |
|---|---|
| Airport | Tindal Airport (YPTN) |
| Time | Latitude | Longitude | Altitude | Speed | Heading |
|---|---|---|---|---|---|
| 2026-05-07 00:48 | -12.80069 | 131.16800 | 16729 ft | 344 kts | 148° |
| 2026-05-07 00:49 | -12.82061 | 131.18185 | 17259 ft | 348 kts | 148° |
| 2026-05-07 00:49 | -12.84076 | 131.19583 | 17794 ft | 352 kts | 148° |
| 2026-05-07 00:49 | -12.86094 | 131.20982 | 18298 ft | 356 kts | 148° |
| 2026-05-07 00:49 | -12.88163 | 131.22419 | 18669 ft | 363 kts | 148° |
| 2026-05-07 00:50 | -12.90287 | 131.23895 | 18857 ft | 375 kts | 148° |
| 2026-05-07 00:50 | -12.92485 | 131.25424 | 18952 ft | 388 kts | 148° |
| 2026-05-07 00:50 | -12.94757 | 131.27004 | 19001 ft | 401 kts | 148° |
| 2026-05-07 00:50 | -12.97110 | 131.28642 | 19028 ft | 415 kts | 148° |
| 2026-05-07 00:51 | -12.99535 | 131.30329 | 19044 ft | 428 kts | 148° |
| 2026-05-07 00:51 | -13.02035 | 131.32067 | 19051 ft | 441 kts | 148° |
| 2026-05-07 00:51 | -13.04583 | 131.33839 | 19059 ft | 453 kts | 147° |
| 2026-05-07 00:51 | -13.07228 | 131.35681 | 19058 ft | 464 kts | 147° |
| 2026-05-07 00:52 | -13.09926 | 131.37565 | 19063 ft | 475 kts | 147° |
| 2026-05-07 00:52 | -13.12686 | 131.39480 | 19060 ft | 479 kts | 148° |
| 2026-05-07 00:52 | -13.15410 | 131.41374 | 19052 ft | 470 kts | 147° |
| 2026-05-07 00:52 | -13.18111 | 131.43259 | 19047 ft | 468 kts | 147° |
| 2026-05-07 00:53 | -13.20800 | 131.45134 | 19043 ft | 467 kts | 147° |
| 2026-05-07 00:53 | -13.23486 | 131.47007 | 19043 ft | 465 kts | 147° |
| 2026-05-07 00:53 | -13.26156 | 131.48866 | 19057 ft | 464 kts | 147° |
| 2026-05-07 00:53 | -13.28823 | 131.50727 | 19056 ft | 463 kts | 148° |
| 2026-05-07 00:54 | -13.31484 | 131.52582 | 19052 ft | 462 kts | 147° |
| 2026-05-07 00:54 | -13.34145 | 131.54440 | 19050 ft | 462 kts | 147° |
| 2026-05-07 00:54 | -13.36802 | 131.56292 | 19045 ft | 461 kts | 147° |
| 2026-05-07 00:54 | -13.39458 | 131.58147 | 19039 ft | 461 kts | 147° |
| 2026-05-07 00:55 | -13.42080 | 131.59979 | 19041 ft | 460 kts | 147° |
| 2026-05-07 00:55 | -13.44726 | 131.61828 | 19040 ft | 460 kts | 147° |
| 2026-05-07 00:55 | -13.47372 | 131.63676 | 19037 ft | 459 kts | 148° |
| 2026-05-07 00:55 | -13.50015 | 131.65519 | 19038 ft | 459 kts | 147° |
| 2026-05-07 00:56 | -13.52651 | 131.67366 | 19039 ft | 459 kts | 147° |
| 2026-05-07 00:56 | -13.55294 | 131.69209 | 19041 ft | 458 kts | 147° |
| 2026-05-07 00:56 | -13.57934 | 131.71059 | 19042 ft | 458 kts | 147° |
| 2026-05-07 00:56 | -13.60578 | 131.72893 | 19038 ft | 458 kts | 148° |
| 2026-05-07 00:57 | -13.63241 | 131.74689 | 19040 ft | 456 kts | 148° |
| 2026-05-07 00:57 | -13.65870 | 131.76467 | 19043 ft | 446 kts | 148° |
| 2026-05-07 00:57 | -13.68410 | 131.78184 | 19044 ft | 438 kts | 148° |
| 2026-05-07 00:57 | -13.70931 | 131.79890 | 19049 ft | 431 kts | 149° |
| 2026-05-07 00:58 | -13.73426 | 131.81572 | 19047 ft | 425 kts | 148° |
| 2026-05-07 00:58 | -13.75882 | 131.83233 | 18644 ft | 420 kts | 149° |
| 2026-05-07 00:58 | -13.78314 | 131.84880 | 18095 ft | 416 kts | 148° |
| 2026-05-07 00:58 | -13.80716 | 131.86509 | 17514 ft | 412 kts | 148° |
| 2026-05-07 00:59 | -13.85452 | 131.89712 | 16416 ft | 401 kts | 148° |
| 2026-05-07 00:59 | -13.87765 | 131.91285 | 15892 ft | 395 kts | 148° |
| 2026-05-07 00:59 | -13.90046 | 131.92830 | 15374 ft | 390 kts | 148° |
| 2026-05-07 01:00 | -13.92271 | 131.94336 | 14883 ft | 384 kts | 148° |
| 2026-05-07 01:00 | -13.94487 | 131.95838 | 14394 ft | 379 kts | 148° |
| 2026-05-07 01:00 | -13.96682 | 131.97324 | 13928 ft | 374 kts | 148° |
| 2026-05-07 01:00 | -13.98846 | 131.98785 | 13410 ft | 370 kts | 148° |
| 2026-05-07 01:01 | -14.00984 | 132.00232 | 12886 ft | 365 kts | 148° |
| 2026-05-07 01:01 | -14.03086 | 132.01678 | 12390 ft | 361 kts | 147° |
| 2026-05-07 01:01 | -14.05137 | 132.03093 | 11899 ft | 346 kts | 147° |
| 2026-05-07 01:01 | -14.07099 | 132.04443 | 11438 ft | 333 kts | 147° |
| 2026-05-07 01:02 | -14.08996 | 132.05744 | 11004 ft | 321 kts | 147° |
| 2026-05-07 01:02 | -14.10831 | 132.06995 | 10576 ft | 311 kts | 147° |
| 2026-05-07 01:02 | -14.12587 | 132.08187 | 10175 ft | 302 kts | 147° |
| 2026-05-07 01:02 | -14.14323 | 132.09355 | 9756 ft | 293 kts | 147° |
| 2026-05-07 01:03 | -14.16009 | 132.10486 | 9335 ft | 285 kts | 147° |
| 2026-05-07 01:03 | -14.17602 | 132.11550 | 8948 ft | 278 kts | 147° |
| 2026-05-07 01:03 | -14.19208 | 132.12613 | 8566 ft | 270 kts | 148° |
| 2026-05-07 01:03 | -14.20772 | 132.13646 | 8193 ft | 263 kts | 147° |
| 2026-05-07 01:04 | -14.22295 | 132.14648 | 7838 ft | 256 kts | 147° |
| 2026-05-07 01:04 | -14.23778 | 132.15623 | 7512 ft | 246 kts | 147° |
| 2026-05-07 01:04 | -14.25170 | 132.16533 | 7224 ft | 234 kts | 148° |
| 2026-05-07 01:04 | -14.26514 | 132.17405 | 6941 ft | 222 kts | 147° |
| 2026-05-07 01:05 | -14.27795 | 132.18232 | 6631 ft | 213 kts | 147° |
| 2026-05-07 01:05 | -14.29043 | 132.19029 | 6287 ft | 208 kts | 148° |
| 2026-05-07 01:05 | -14.30265 | 132.19802 | 5949 ft | 204 kts | 147° |
| 2026-05-07 01:05 | -14.31466 | 132.20552 | 5587 ft | 200 kts | 147° |
| 2026-05-07 01:06 | -14.32651 | 132.21277 | 5217 ft | 197 kts | 147° |
| 2026-05-07 01:06 | -14.33819 | 132.22003 | 4826 ft | 196 kts | 145° |
| 2026-05-07 01:06 | -14.34951 | 132.22768 | 4447 ft | 192 kts | 143° |
| 2026-05-07 01:06 | -14.36037 | 132.23532 | 4137 ft | 186 kts | 142° |
| 2026-05-07 01:07 | -14.37059 | 132.24272 | 3885 ft | 178 kts | 140° |
| 2026-05-07 01:07 | -14.38002 | 132.25055 | 3644 ft | 170 kts | 136° |
| 2026-05-07 01:07 | -14.38887 | 132.25822 | 3418 ft | 162 kts | 135° |
| 2026-05-07 01:07 | -14.39709 | 132.26567 | 3213 ft | 153 kts | 134° |
| 2026-05-07 01:08 | -14.40491 | 132.27269 | 3022 ft | 144 kts | 134° |
| 2026-05-07 01:08 | -14.41207 | 132.27911 | 2858 ft | 130 kts | 134° |
| 2026-05-07 01:08 | -14.41886 | 132.28527 | 2676 ft | 130 kts | 135° |
| 2026-05-07 01:08 | -14.42564 | 132.29137 | 2553 ft | 129 kts | 134° |
| 2026-05-07 01:09 | -14.43241 | 132.29748 | 2397 ft | 129 kts | 135° |
| 2026-05-07 01:09 | -14.43910 | 132.30349 | 2224 ft | 129 kts | 136° |
| 2026-05-07 01:09 | -14.44592 | 132.30958 | 2033 ft | 130 kts | 138° |
| 2026-05-07 01:09 | -14.45270 | 132.31557 | 1869 ft | 129 kts | 137° |
| 2026-05-07 01:10 | -14.45959 | 132.32176 | 1732 ft | 130 kts | 137° |
| 2026-05-07 01:10 | -14.46630 | 132.32774 | 1566 ft | 125 kts | 138° |
| 2026-05-07 01:10 | -14.47291 | 132.33350 | 1396 ft | 123 kts | 138° |
| 2026-05-07 01:10 | -14.47925 | 132.33928 | 1199 ft | 120 kts | 139° |
| 2026-05-07 01:11 | -14.48542 | 132.34511 | 1023 ft | 123 kts | 142° |
| 2026-05-07 01:11 | -14.49192 | 132.35097 | 849 ft | 126 kts | 143° |
| 2026-05-07 01:11 | -14.49895 | 132.35689 | 696 ft | 134 kts | 142° |
| 2026-05-07 01:11 | -14.50585 | 132.36328 | 626 ft | 127 kts | 139° |
| 2026-05-07 01:12 | -14.51222 | 132.36891 | 462 ft | 114 kts | 140° |
| 2026-05-07 01:12 | -14.51765 | 132.37376 | 437 ft | 89 kts | 139° |
| 2026-05-07 01:12 | -14.52157 | 132.37726 | 438 ft | 57 kts | 139° |
| 2026-05-07 01:12 | -14.52384 | 132.37933 | 433 ft | 36 kts | 133° |
| 2026-05-07 01:13 | -14.52468 | 132.38061 | 433 ft | 11 kts | 116° |
| 2026-05-07 01:13 | -14.52496 | 132.38137 | 438 ft | 12 kts | 106° |
| 2026-05-07 01:13 | -14.52488 | 132.38208 | 436 ft | 10 kts | 22° |
| 2026-05-07 01:13 | -14.52435 | 132.38182 | 432 ft | 1 kts | 318° |
| 2026-05-07 01:14 | -14.52433 | 132.38180 | 433 ft | 1 kts | 318° |
| 2026-05-07 01:14 | -14.52419 | 132.38168 | 434 ft | 4 kts | 319° |
| 2026-05-07 01:14 | -14.52387 | 132.38140 | 439 ft | 8 kts | 319° |
| 2026-05-07 01:14 | -14.52339 | 132.38097 | 439 ft | 11 kts | 319° |
| 2026-05-07 01:15 | -14.52277 | 132.38041 | 433 ft | 13 kts | 319° |
| 2026-05-07 01:15 | -14.52198 | 132.37970 | 439 ft | 16 kts | 320° |
| 2026-05-07 01:15 | -14.52105 | 132.37888 | 439 ft | 19 kts | 319° |
| 2026-05-07 01:15 | -14.51998 | 132.37789 | 439 ft | 22 kts | 320° |
| 2026-05-07 01:16 | -14.51874 | 132.37682 | 432 ft | 24 kts | 318° |
| 2026-05-07 01:16 | -14.51761 | 132.37579 | 433 ft | 16 kts | 319° |
| 2026-05-07 01:16 | -14.51675 | 132.37502 | 428 ft | 18 kts | 319° |
| 2026-05-07 01:16 | -14.51580 | 132.37418 | 434 ft | 18 kts | 319° |
| 2026-05-07 01:17 | -14.51486 | 132.37332 | 429 ft | 19 kts | 317° |
| 2026-05-07 01:17 | -14.51406 | 132.37306 | 439 ft | 10 kts | 17° |
| 2026-05-07 01:17 | -14.51350 | 132.37277 | 435 ft | 10 kts | 316° |
| 2026-05-07 01:17 | -14.51296 | 132.37227 | 435 ft | 11 kts | 319° |
| 2026-05-07 01:18 | -14.51268 | 132.37221 | 433 ft | 3 kts | 31° |
| 2026-05-07 01:18 | -14.51254 | 132.37237 | 439 ft | 4 kts | 49° |
| 2026-05-07 01:18 | -14.51247 | 132.37245 | 427 ft | 0 kts | 48° |